Sao Bernardo do Campo, Brazil
Current Conditions -  °F | °C
As of 7:00 AM on Saturday 01 Nov 2014 (Local Time) from SBSP Reporting Station
Light Rain Light Rain  
Wind Chill: 72°   Ceiling: Unl
Heat Index: 72°   Visibility: 6mi
Dew Point: 63°   Wind: 8mph
Humidity: 73%   Direction: 340°NNW
Pressure: 30.09"   Gusts: NA
Location:  23.71°S, 46.54°W
Report Text: SBSP 010900Z 34007KT 9999 -RA NSC 22/17 Q1019
Loading
Personal Weather Stations






























Interactive Weather Map
Tropical Storm Tracking
New forecast layout! Learn more

10-Day Weather Forecast

Advertisements
Track Severe Weather on mobile